sensor_id;sensor_type;location;lat;lon;timestamp;pressure;altitude;pressure_sealevel;temperature;humidity
75166;BME280;63747;48.042;10.088;2023-11-19T00:01:39;95257.16;;;4.48;77.68
75166;BME280;63747;48.042;10.088;2023-11-19T00:04:40;95262.28;;;4.49;77.61
75166;BME280;63747;48.042;10.088;2023-11-19T00:07:42;95253.28;;;4.52;77.60
75166;BME280;63747;48.042;10.088;2023-11-19T00:10:42;95247.66;;;4.56;77.57
75166;BME280;63747;48.042;10.088;2023-11-19T00:13:43;95241.56;;;4.56;77.54
75166;BME280;63747;48.042;10.088;2023-11-19T00:16:44;95234.94;;;4.61;77.48
75166;BME280;63747;48.042;10.088;2023-11-19T00:19:44;95230.38;;;4.64;77.70
75166;BME280;63747;48.042;10.088;2023-11-19T00:22:46;95214.63;;;4.64;78.06
75166;BME280;63747;48.042;10.088;2023-11-19T00:25:48;95212.69;;;4.66;77.93
75166;BME280;63747;48.042;10.088;2023-11-19T00:28:49;95213.38;;;4.68;78.10
75166;BME280;63747;48.042;10.088;2023-11-19T00:31:50;95204.81;;;4.66;78.58
75166;BME280;63747;48.042;10.088;2023-11-19T00:34:50;95210.50;;;4.71;78.26
75166;BME280;63747;48.042;10.088;2023-11-19T00:37:54;95209.38;;;4.73;78.38
75166;BME280;63747;48.042;10.088;2023-11-19T00:40:55;95201.38;;;4.75;78.72
75166;BME280;63747;48.042;10.088;2023-11-19T00:43:55;95194.88;;;4.79;78.70
75166;BME280;63747;48.042;10.088;2023-11-19T00:46:56;95192.81;;;4.82;78.85
75166;BME280;63747;48.042;10.088;2023-11-19T00:49:57;95201.78;;;4.80;79.27
75166;BME280;63747;48.042;10.088;2023-11-19T00:52:57;95198.75;;;4.84;79.32
75166;BME280;63747;48.042;10.088;2023-11-19T00:55:58;95205.25;;;4.90;79.11
75166;BME280;63747;48.042;10.088;2023-11-19T00:58:59;95216.44;;;4.92;79.48
75166;BME280;63747;48.042;10.088;2023-11-19T01:02:00;95224.47;;;4.91;79.60
75166;BME280;63747;48.042;10.088;2023-11-19T01:05:08;95225.00;;;4.94;79.78
75166;BME280;63747;48.042;10.088;2023-11-19T01:08:09;95229.16;;;4.97;80.13
75166;BME280;63747;48.042;10.088;2023-11-19T01:11:19;95233.31;;;4.99;80.31
75166;BME280;63747;48.042;10.088;2023-11-19T01:14:21;95223.63;;;5.00;80.41
75166;BME280;63747;48.042;10.088;2023-11-19T01:17:21;95232.75;;;5.05;80.30
75166;BME280;63747;48.042;10.088;2023-11-19T01:20:22;95209.53;;;5.10;80.04
75166;BME280;63747;48.042;10.088;2023-11-19T01:23:23;95217.69;;;5.17;79.83
75166;BME280;63747;48.042;10.088;2023-11-19T01:26:23;95197.75;;;5.14;79.57
75166;BME280;63747;48.042;10.088;2023-11-19T01:29:24;95187.66;;;5.20;79.83
75166;BME280;63747;48.042;10.088;2023-11-19T01:32:25;95182.13;;;5.23;79.76
75166;BME280;63747;48.042;10.088;2023-11-19T01:35:25;95181.84;;;5.26;79.76
75166;BME280;63747;48.042;10.088;2023-11-19T01:38:26;95177.25;;;5.28;79.62
75166;BME280;63747;48.042;10.088;2023-11-19T01:41:27;95160.41;;;5.30;80.04
75166;BME280;63747;48.042;10.088;2023-11-19T01:44:28;95150.72;;;5.31;79.75
75166;BME280;63747;48.042;10.088;2023-11-19T01:47:30;95136.44;;;5.33;80.04
75166;BME280;63747;48.042;10.088;2023-11-19T01:50:31;95128.56;;;5.33;79.85
75166;BME280;63747;48.042;10.088;2023-11-19T01:53:34;95132.00;;;5.34;80.39
75166;BME280;63747;48.042;10.088;2023-11-19T01:56:38;95136.03;;;5.38;80.29
75166;BME280;63747;48.042;10.088;2023-11-19T01:59:40;95136.28;;;5.35;80.77
75166;BME280;63747;48.042;10.088;2023-11-19T02:02:42;95133.41;;;5.38;80.78
75166;BME280;63747;48.042;10.088;2023-11-19T02:05:45;95137.69;;;5.39;80.69
75166;BME280;63747;48.042;10.088;2023-11-19T02:08:47;95148.88;;;5.41;80.70
75166;BME280;63747;48.042;10.088;2023-11-19T02:11:47;95141.97;;;5.40;80.92
75166;BME280;63747;48.042;10.088;2023-11-19T02:14:51;95147.06;;;5.41;81.10
75166;BME280;63747;48.042;10.088;2023-11-19T02:17:52;95120.78;;;5.41;81.13
75166;BME280;63747;48.042;10.088;2023-11-19T02:20:53;95111.66;;;5.46;81.13
75166;BME280;63747;48.042;10.088;2023-11-19T02:23:54;95096.69;;;5.46;81.08
75166;BME280;63747;48.042;10.088;2023-11-19T02:27:02;95100.00;;;5.48;80.99
75166;BME280;63747;48.042;10.088;2023-11-19T02:30:06;95094.47;;;5.51;81.13
75166;BME280;63747;48.042;10.088;2023-11-19T02:33:08;95086.59;;;5.51;81.23
75166;BME280;63747;48.042;10.088;2023-11-19T02:36:09;95098.59;;;5.54;81.44
75166;BME280;63747;48.042;10.088;2023-11-19T02:39:10;95087.66;;;5.58;81.43
75166;BME280;63747;48.042;10.088;2023-11-19T02:42:12;95079.34;;;5.63;81.81
75166;BME280;63747;48.042;10.088;2023-11-19T02:45:14;95076.41;;;5.66;81.73
75166;BME280;63747;48.042;10.088;2023-11-19T02:48:15;95075.16;;;5.70;81.76
75166;BME280;63747;48.042;10.088;2023-11-19T02:51:16;95086.50;;;5.70;82.14
75166;BME280;63747;48.042;10.088;2023-11-19T02:54:18;95080.25;;;5.71;82.39
75166;BME280;63747;48.042;10.088;2023-11-19T02:57:21;95080.09;;;5.73;82.29
75166;BME280;63747;48.042;10.088;2023-11-19T03:00:22;95078.44;;;5.72;82.45
75166;BME280;63747;48.042;10.088;2023-11-19T03:03:35;95064.16;;;5.75;82.23
75166;BME280;63747;48.042;10.088;2023-11-19T03:06:40;95073.72;;;5.76;82.27
75166;BME280;63747;48.042;10.088;2023-11-19T03:09:41;95067.50;;;5.77;82.24
75166;BME280;63747;48.042;10.088;2023-11-19T03:12:44;95056.13;;;5.76;82.27
75166;BME280;63747;48.042;10.088;2023-11-19T03:15:45;95066.78;;;5.75;82.45
75166;BME280;63747;48.042;10.088;2023-11-19T03:18:46;95055.59;;;5.73;82.42
75166;BME280;63747;48.042;10.088;2023-11-19T03:21:46;95062.53;;;5.74;82.48
75166;BME280;63747;48.042;10.088;2023-11-19T03:24:50;95064.56;;;5.80;82.21
75166;BME280;63747;48.042;10.088;2023-11-19T03:27:51;95067.59;;;5.85;82.14
75166;BME280;63747;48.042;10.088;2023-11-19T03:30:53;95068.28;;;5.87;81.92
75166;BME280;63747;48.042;10.088;2023-11-19T03:33:54;95075.47;;;5.85;82.28
75166;BME280;63747;48.042;10.088;2023-11-19T03:36:54;95074.38;;;5.87;82.09
75166;BME280;63747;48.042;10.088;2023-11-19T03:39:59;95066.47;;;5.87;82.24
75166;BME280;63747;48.042;10.088;2023-11-19T03:43:00;95071.75;;;5.87;82.32
75166;BME280;63747;48.042;10.088;2023-11-19T03:46:00;95078.38;;;5.82;82.49
75166;BME280;63747;48.042;10.088;2023-11-19T03:49:01;95079.09;;;5.84;82.38
75166;BME280;63747;48.042;10.088;2023-11-19T03:52:04;95076.47;;;5.84;82.50
75166;BME280;63747;48.042;10.088;2023-11-19T03:55:05;95073.53;;;5.87;82.60
75166;BME280;63747;48.042;10.088;2023-11-19T03:58:06;95071.59;;;5.89;82.60
75166;BME280;63747;48.042;10.088;2023-11-19T04:01:11;95074.75;;;5.92;82.50
75166;BME280;63747;48.042;10.088;2023-11-19T04:04:15;95071.16;;;5.93;82.35
75166;BME280;63747;48.042;10.088;2023-11-19T04:07:15;95072.53;;;5.97;82.49
75166;BME280;63747;48.042;10.088;2023-11-19T04:10:16;95086.19;;;6.01;82.53
75166;BME280;63747;48.042;10.088;2023-11-19T04:13:17;95073.72;;;6.03;82.53
75166;BME280;63747;48.042;10.088;2023-11-19T04:16:18;95091.84;;;6.06;82.76
75166;BME280;63747;48.042;10.088;2023-11-19T04:19:19;95089.88;;;6.08;82.89
75166;BME280;63747;48.042;10.088;2023-11-19T04:22:20;95087.97;;;6.10;82.76
75166;BME280;63747;48.042;10.088;2023-11-19T04:25:20;95090.13;;;6.15;82.72
75166;BME280;63747;48.042;10.088;2023-11-19T04:28:21;95086.66;;;6.14;82.86
75166;BME280;63747;48.042;10.088;2023-11-19T04:31:22;95094.56;;;6.14;82.88
75166;BME280;63747;48.042;10.088;2023-11-19T04:34:23;95098.56;;;6.18;82.95
75166;BME280;63747;48.042;10.088;2023-11-19T04:37:24;95104.81;;;6.17;83.09
75166;BME280;63747;48.042;10.088;2023-11-19T04:40:25;95095.78;;;6.20;83.04
75166;BME280;63747;48.042;10.088;2023-11-19T04:43:25;95088.38;;;6.23;82.93
75166;BME280;63747;48.042;10.088;2023-11-19T04:46:26;95100.59;;;6.24;83.09
75166;BME280;63747;48.042;10.088;2023-11-19T04:49:27;95112.78;;;6.25;83.09
75166;BME280;63747;48.042;10.088;2023-11-19T04:52:28;95098.31;;;6.30;82.95
75166;BME280;63747;48.042;10.088;2023-11-19T04:55:28;95109.56;;;6.32;82.91
75166;BME280;63747;48.042;10.088;2023-11-19T04:58:29;95114.44;;;6.27;83.49
75166;BME280;63747;48.042;10.088;2023-11-19T05:01:30;95106.09;;;6.31;83.50
75166;BME280;63747;48.042;10.088;2023-11-19T05:04:31;95113.69;;;6.34;83.37
75166;BME280;63747;48.042;10.088;2023-11-19T05:07:32;95107.28;;;6.37;83.80
75166;BME280;63747;48.042;10.088;2023-11-19T05:10:32;95114.06;;;6.39;83.67
75166;BME280;63747;48.042;10.088;2023-11-19T05:13:33;95114.56;;;6.43;83.37
75166;BME280;63747;48.042;10.088;2023-11-19T05:16:34;95117.75;;;6.46;83.52
75166;BME280;63747;48.042;10.088;2023-11-19T05:19:35;95100.81;;;6.49;83.41
75166;BME280;63747;48.042;10.088;2023-11-19T05:22:35;95106.47;;;6.54;83.26
75166;BME280;63747;48.042;10.088;2023-11-19T05:25:37;95114.19;;;6.56;83.34
75166;BME280;63747;48.042;10.088;2023-11-19T05:28:38;95112.09;;;6.59;83.19
75166;BME280;63747;48.042;10.088;2023-11-19T05:31:39;95101.41;;;6.61;83.16
75166;BME280;63747;48.042;10.088;2023-11-19T05:34:40;95094.88;;;6.65;82.93
75166;BME280;63747;48.042;10.088;2023-11-19T05:37:41;95103.44;;;6.67;83.10
75166;BME280;63747;48.042;10.088;2023-11-19T05:40:42;95135.88;;;6.67;83.14
75166;BME280;63747;48.042;10.088;2023-11-19T05:43:43;95142.13;;;6.66;83.54
75166;BME280;63747;48.042;10.088;2023-11-19T05:46:45;95128.81;;;6.68;83.54
75166;BME280;63747;48.042;10.088;2023-11-19T05:49:46;95118.81;;;6.71;83.43
75166;BME280;63747;48.042;10.088;2023-11-19T05:52:46;95124.06;;;6.71;83.71
75166;BME280;63747;48.042;10.088;2023-11-19T05:55:47;95130.69;;;6.75;83.84
75166;BME280;63747;48.042;10.088;2023-11-19T05:58:57;95129.25;;;6.81;83.69
75166;BME280;63747;48.042;10.088;2023-11-19T06:01:57;95134.34;;;6.83;83.86
75166;BME280;63747;48.042;10.088;2023-11-19T06:04:58;95132.09;;;6.88;83.71
75166;BME280;63747;48.042;10.088;2023-11-19T06:07:59;95127.50;;;6.90;83.67
75166;BME280;63747;48.042;10.088;2023-11-19T06:11:00;95129.84;;;6.93;83.73
75166;BME280;63747;48.042;10.088;2023-11-19T06:14:01;95129.25;;;6.99;83.58
75166;BME280;63747;48.042;10.088;2023-11-19T06:17:05;95120.19;;;7.01;83.42
75166;BME280;63747;48.042;10.088;2023-11-19T06:20:06;95138.03;;;7.07;83.60
75166;BME280;63747;48.042;10.088;2023-11-19T06:23:07;95130.13;;;7.07;84.17
75166;BME280;63747;48.042;10.088;2023-11-19T06:26:08;95146.44;;;7.11;84.25
75166;BME280;63747;48.042;10.088;2023-11-19T06:29:09;95135.59;;;7.14;84.04
75166;BME280;63747;48.042;10.088;2023-11-19T06:32:10;95135.44;;;7.16;83.84
75166;BME280;63747;48.042;10.088;2023-11-19T06:35:10;95150.81;;;7.20;83.73
75166;BME280;63747;48.042;10.088;2023-11-19T06:38:11;95163.28;;;7.18;83.74
75166;BME280;63747;48.042;10.088;2023-11-19T06:41:12;95150.09;;;7.18;83.79
75166;BME280;63747;48.042;10.088;2023-11-19T06:44:13;95142.91;;;7.20;83.74
75166;BME280;63747;48.042;10.088;2023-11-19T06:47:13;95140.56;;;7.17;83.64
75166;BME280;63747;48.042;10.088;2023-11-19T06:50:15;95154.09;;;7.22;83.78
75166;BME280;63747;48.042;10.088;2023-11-19T06:53:16;95159.22;;;7.24;83.52
75166;BME280;63747;48.042;10.088;2023-11-19T06:56:20;95148.38;;;7.27;83.40
75166;BME280;63747;48.042;10.088;2023-11-19T06:59:21;95161.41;;;7.28;83.31
75166;BME280;63747;48.042;10.088;2023-11-19T07:02:22;95159.28;;;7.32;83.39
75166;BME280;63747;48.042;10.088;2023-11-19T07:05:23;95160.78;;;7.34;83.33
75166;BME280;63747;48.042;10.088;2023-11-19T07:08:24;95158.16;;;7.34;83.46
75166;BME280;63747;48.042;10.088;2023-11-19T07:11:24;95163.78;;;7.40;83.60
75166;BME280;63747;48.042;10.088;2023-11-19T07:14:25;95166.78;;;7.45;83.29
75166;BME280;63747;48.042;10.088;2023-11-19T07:17:26;95175.22;;;7.48;83.23
75166;BME280;63747;48.042;10.088;2023-11-19T07:20:27;95178.34;;;7.52;83.72
75166;BME280;63747;48.042;10.088;2023-11-19T07:23:28;95168.19;;;7.57;83.50
75166;BME280;63747;48.042;10.088;2023-11-19T07:26:28;95178.25;;;7.61;83.63
75166;BME280;63747;48.042;10.088;2023-11-19T07:29:29;95178.09;;;7.63;83.90
75166;BME280;63747;48.042;10.088;2023-11-19T07:32:30;95182.09;;;7.67;83.91
75166;BME280;63747;48.042;10.088;2023-11-19T07:35:31;95196.63;;;7.71;83.83
75166;BME280;63747;48.042;10.088;2023-11-19T07:38:32;95190.75;;;7.77;83.65
75166;BME280;63747;48.042;10.088;2023-11-19T07:41:33;95191.28;;;7.81;83.42
75166;BME280;63747;48.042;10.088;2023-11-19T07:44:34;95205.28;;;7.81;83.63
75166;BME280;63747;48.042;10.088;2023-11-19T07:47:35;95203.16;;;7.85;83.63
75166;BME280;63747;48.042;10.088;2023-11-19T07:50:35;95210.59;;;7.89;83.54
75166;BME280;63747;48.042;10.088;2023-11-19T07:53:36;95200.59;;;7.93;83.53
75166;BME280;63747;48.042;10.088;2023-11-19T07:56:38;95213.63;;;7.95;83.58
75166;BME280;63747;48.042;10.088;2023-11-19T07:59:39;95209.66;;;7.99;83.68
75166;BME280;63747;48.042;10.088;2023-11-19T08:02:39;95216.94;;;8.05;83.42
75166;BME280;63747;48.042;10.088;2023-11-19T08:05:40;95221.25;;;8.06;83.61
75166;BME280;63747;48.042;10.088;2023-11-19T08:08:41;95219.97;;;8.10;83.67
75166;BME280;63747;48.042;10.088;2023-11-19T08:11:42;95232.53;;;8.16;83.90
75166;BME280;63747;48.042;10.088;2023-11-19T08:14:42;95213.41;;;8.22;83.55
75166;BME280;63747;48.042;10.088;2023-11-19T08:17:44;95226.81;;;8.29;83.44
75166;BME280;63747;48.042;10.088;2023-11-19T08:20:45;95238.69;;;8.33;83.58
75166;BME280;63747;48.042;10.088;2023-11-19T08:23:47;95231.97;;;8.38;83.34
75166;BME280;63747;48.042;10.088;2023-11-19T08:26:48;95232.63;;;8.40;83.40
75166;BME280;63747;48.042;10.088;2023-11-19T08:29:49;95227.84;;;8.44;83.23
75166;BME280;63747;48.042;10.088;2023-11-19T08:32:49;95233.66;;;8.48;83.26
75166;BME280;63747;48.042;10.088;2023-11-19T08:35:50;95218.31;;;8.51;83.36
75166;BME280;63747;48.042;10.088;2023-11-19T08:38:51;95221.13;;;8.58;83.38
75166;BME280;63747;48.042;10.088;2023-11-19T08:41:52;95205.47;;;8.64;83.06
75166;BME280;63747;48.042;10.088;2023-11-19T08:44:52;95202.00;;;8.72;83.01
75166;BME280;63747;48.042;10.088;2023-11-19T08:47:54;95204.00;;;8.78;82.81
75166;BME280;63747;48.042;10.088;2023-11-19T08:50:55;95195.44;;;8.84;82.59
75166;BME280;63747;48.042;10.088;2023-11-19T08:53:56;95203.69;;;8.89;82.38
75166;BME280;63747;48.042;10.088;2023-11-19T08:56:57;95215.09;;;8.98;82.27
75166;BME280;63747;48.042;10.088;2023-11-19T08:59:58;95201.72;;;8.99;82.25
75166;BME280;63747;48.042;10.088;2023-11-19T09:03:02;95203.72;;;8.97;82.12
75166;BME280;63747;48.042;10.088;2023-11-19T09:06:03;95203.22;;;9.02;82.03
75166;BME280;63747;48.042;10.088;2023-11-19T09:09:04;95201.72;;;9.08;81.90
75166;BME280;63747;48.042;10.088;2023-11-19T09:12:05;95209.34;;;9.11;81.69
75166;BME280;63747;48.042;10.088;2023-11-19T09:15:07;95213.97;;;9.17;81.50
75166;BME280;63747;48.042;10.088;2023-11-19T09:18:10;95215.16;;;9.22;81.37
75166;BME280;63747;48.042;10.088;2023-11-19T09:21:11;95215.16;;;9.31;81.41
75166;BME280;63747;48.042;10.088;2023-11-19T09:24:12;95216.34;;;9.36;81.21
75166;BME280;63747;48.042;10.088;2023-11-19T09:27:13;95211.69;;;9.46;80.94
75166;BME280;63747;48.042;10.088;2023-11-19T09:30:14;95212.66;;;9.53;80.82
75166;BME280;63747;48.042;10.088;2023-11-19T09:33:14;95210.69;;;9.56;80.74
75166;BME280;63747;48.042;10.088;2023-11-19T09:36:15;95207.19;;;9.55;80.54
75166;BME280;63747;48.042;10.088;2023-11-19T09:39:16;95197.78;;;9.61;80.43
75166;BME280;63747;48.042;10.088;2023-11-19T09:42:18;95200.75;;;9.66;80.22
75166;BME280;63747;48.042;10.088;2023-11-19T09:45:20;95207.53;;;9.76;80.19
75166;BME280;63747;48.042;10.088;2023-11-19T09:48:24;95207.97;;;9.88;79.95
75166;BME280;63747;48.042;10.088;2023-11-19T09:51:25;95209.13;;;9.94;79.28
75166;BME280;63747;48.042;10.088;2023-11-19T09:54:26;95208.00;;;9.96;79.36
75166;BME280;63747;48.042;10.088;2023-11-19T09:57:29;95203.34;;;9.98;79.40
75166;BME280;63747;48.042;10.088;2023-11-19T10:00:33;95201.31;;;10.17;79.12
75166;BME280;63747;48.042;10.088;2023-11-19T10:03:34;95201.59;;;10.22;78.81
75166;BME280;63747;48.042;10.088;2023-11-19T10:06:38;95200.31;;;10.18;78.57
75166;BME280;63747;48.042;10.088;2023-11-19T10:09:39;95211.03;;;10.24;78.53
75166;BME280;63747;48.042;10.088;2023-11-19T10:12:39;95198.31;;;10.20;78.66
75166;BME280;63747;48.042;10.088;2023-11-19T10:15:40;95208.22;;;10.26;78.32
75166;BME280;63747;48.042;10.088;2023-11-19T10:18:48;95199.59;;;10.32;78.12
75166;BME280;63747;48.042;10.088;2023-11-19T10:21:50;95198.38;;;10.43;77.90
75166;BME280;63747;48.042;10.088;2023-11-19T10:24:51;95197.81;;;10.55;77.79
75166;BME280;63747;48.042;10.088;2023-11-19T10:27:52;95206.94;;;10.53;77.14
75166;BME280;63747;48.042;10.088;2023-11-19T10:30:56;95200.31;;;10.49;77.32
75166;BME280;63747;48.042;10.088;2023-11-19T10:33:57;95195.22;;;10.47;77.28
75166;BME280;63747;48.042;10.088;2023-11-19T10:36:57;95191.25;;;10.43;77.29
75166;BME280;63747;48.042;10.088;2023-11-19T10:39:58;95181.63;;;10.42;77.16
75166;BME280;63747;48.042;10.088;2023-11-19T10:43:02;95182.31;;;10.75;76.51
75166;BME280;63747;48.042;10.088;2023-11-19T10:46:11;95180.00;;;11.03;75.62
75166;BME280;63747;48.042;10.088;2023-11-19T10:49:12;95178.25;;;11.19;74.93
75166;BME280;63747;48.042;10.088;2023-11-19T10:52:17;95160.53;;;11.34;74.28
75166;BME280;63747;48.042;10.088;2023-11-19T10:55:20;95141.34;;;11.61;74.08
75166;BME280;63747;48.042;10.088;2023-11-19T10:58:28;95137.25;;;11.74;73.10
75166;BME280;63747;48.042;10.088;2023-11-19T11:01:44;95143.19;;;11.90;72.81
75166;BME280;63747;48.042;10.088;2023-11-19T11:04:47;95149.09;;;12.01;72.07
75166;BME280;63747;48.042;10.088;2023-11-19T11:07:48;95153.13;;;12.11;72.11
75166;BME280;63747;48.042;10.088;2023-11-19T11:10:56;95148.81;;;12.25;71.50
75166;BME280;63747;48.042;10.088;2023-11-19T11:14:01;95151.09;;;12.28;70.97
75166;BME280;63747;48.042;10.088;2023-11-19T11:17:04;95143.97;;;12.29;71.05
75166;BME280;63747;48.042;10.088;2023-11-19T11:20:08;95139.28;;;12.16;70.98
75166;BME280;63747;48.042;10.088;2023-11-19T11:27:11;95134.09;;;12.08;70.68
75166;BME280;63747;48.042;10.088;2023-11-19T11:31:15;95131.94;;;11.88;71.22
75166;BME280;63747;48.042;10.088;2023-11-19T11:37:33;95122.81;;;12.20;70.71
75166;BME280;63747;48.042;10.088;2023-11-19T11:40:35;95129.56;;;12.23;70.64
75166;BME280;63747;48.042;10.088;2023-11-19T11:43:44;95120.22;;;12.27;69.66
75166;BME280;63747;48.042;10.088;2023-11-19T11:46:54;95132.59;;;12.35;69.70
75166;BME280;63747;48.042;10.088;2023-11-19T11:49:55;95115.63;;;12.36;69.91
75166;BME280;63747;48.042;10.088;2023-11-19T11:55:58;95115.75;;;11.98;70.56
75166;BME280;63747;48.042;10.088;2023-11-19T11:58:59;95124.59;;;11.90;70.65
75166;BME280;63747;48.042;10.088;2023-11-19T12:02:00;95124.16;;;11.87;70.66
75166;BME280;63747;48.042;10.088;2023-11-19T12:05:01;95109.69;;;11.75;71.33
75166;BME280;63747;48.042;10.088;2023-11-19T12:08:04;95106.47;;;11.79;71.48
75166;BME280;63747;48.042;10.088;2023-11-19T12:11:07;95113.06;;;11.83;71.01
75166;BME280;63747;48.042;10.088;2023-11-19T12:14:08;95110.09;;;12.01;70.81
75166;BME280;63747;48.042;10.088;2023-11-19T12:20:33;95101.38;;;12.07;70.78
75166;BME280;63747;48.042;10.088;2023-11-19T12:23:44;95103.28;;;12.13;70.39
75166;BME280;63747;48.042;10.088;2023-11-19T12:26:46;95093.88;;;12.32;70.43
75166;BME280;63747;48.042;10.088;2023-11-19T12:29:50;95087.50;;;12.63;69.73
75166;BME280;63747;48.042;10.088;2023-11-19T12:32:51;95078.75;;;12.69;68.85
75166;BME280;63747;48.042;10.088;2023-11-19T12:35:53;95082.19;;;12.63;68.93
75166;BME280;63747;48.042;10.088;2023-11-19T12:38:54;95075.84;;;12.64;69.14
75166;BME280;63747;48.042;10.088;2023-11-19T12:41:55;95080.47;;;12.55;68.78
75166;BME280;63747;48.042;10.088;2023-11-19T12:44:57;95072.34;;;12.42;69.50
75166;BME280;63747;48.042;10.088;2023-11-19T12:48:04;95069.25;;;12.60;69.13
75166;BME280;63747;48.042;10.088;2023-11-19T12:51:05;95058.25;;;12.63;68.75
75166;BME280;63747;48.042;10.088;2023-11-19T12:54:07;95076.31;;;12.67;68.91
75166;BME280;63747;48.042;10.088;2023-11-19T12:57:08;95068.06;;;12.62;68.46
75166;BME280;63747;48.042;10.088;2023-11-19T13:00:19;95081.78;;;12.66;67.89
75166;BME280;63747;48.042;10.088;2023-11-19T13:03:29;95078.88;;;12.61;68.32
75166;BME280;63747;48.042;10.088;2023-11-19T13:06:30;95081.34;;;12.62;68.51
75166;BME280;63747;48.042;10.088;2023-11-19T13:09:31;95080.81;;;12.52;68.24
75166;BME280;63747;48.042;10.088;2023-11-19T13:12:32;95081.09;;;12.57;68.25
75166;BME280;63747;48.042;10.088;2023-11-19T13:15:33;95089.81;;;12.51;68.32
75166;BME280;63747;48.042;10.088;2023-11-19T13:18:34;95090.41;;;12.32;68.58
75166;BME280;63747;48.042;10.088;2023-11-19T13:21:35;95089.50;;;12.24;68.47
75166;BME280;63747;48.042;10.088;2023-11-19T13:24:37;95107.41;;;12.16;68.70
75166;BME280;63747;48.042;10.088;2023-11-19T13:27:40;95101.16;;;11.94;68.92
75166;BME280;63747;48.042;10.088;2023-11-19T13:30:40;95080.09;;;11.78;69.50
75166;BME280;63747;48.042;10.088;2023-11-19T13:33:41;95090.47;;;11.73;69.66
75166;BME280;63747;48.042;10.088;2023-11-19T13:36:42;95079.28;;;11.62;70.10
75166;BME280;63747;48.042;10.088;2023-11-19T13:39:43;95063.97;;;11.79;69.87
75166;BME280;63747;48.042;10.088;2023-11-19T13:42:45;95069.38;;;11.86;69.25
75166;BME280;63747;48.042;10.088;2023-11-19T13:45:45;95070.47;;;12.06;69.52
75166;BME280;63747;48.042;10.088;2023-11-19T13:48:46;95059.50;;;12.09;69.07
75166;BME280;63747;48.042;10.088;2023-11-19T13:51:49;95052.53;;;11.93;69.45
75166;BME280;63747;48.042;10.088;2023-11-19T13:54:49;95071.13;;;11.64;70.02
75166;BME280;63747;48.042;10.088;2023-11-19T13:57:50;95064.47;;;11.53;70.16
75166;BME280;63747;48.042;10.088;2023-11-19T14:00:51;95057.50;;;11.52;70.22
75166;BME280;63747;48.042;10.088;2023-11-19T14:03:51;95060.69;;;11.48;70.45
75166;BME280;63747;48.042;10.088;2023-11-19T14:06:53;95056.56;;;11.45;70.56
75166;BME280;63747;48.042;10.088;2023-11-19T14:09:55;95049.59;;;11.59;70.45
75166;BME280;63747;48.042;10.088;2023-11-19T14:12:56;95049.97;;;11.70;69.88
75166;BME280;63747;48.042;10.088;2023-11-19T14:15:56;95047.41;;;11.62;70.29
75166;BME280;63747;48.042;10.088;2023-11-19T14:18:57;95042.13;;;11.48;70.52
75166;BME280;63747;48.042;10.088;2023-11-19T14:21:58;95035.50;;;11.43;70.74
75166;BME280;63747;48.042;10.088;2023-11-19T14:24:59;95041.66;;;11.29;70.96
75166;BME280;63747;48.042;10.088;2023-11-19T14:28:00;95030.41;;;11.27;71.30
75166;BME280;63747;48.042;10.088;2023-11-19T14:31:01;95023.25;;;11.13;71.59
75166;BME280;63747;48.042;10.088;2023-11-19T14:34:01;95026.72;;;11.13;71.55
75166;BME280;63747;48.042;10.088;2023-11-19T14:37:02;95019.69;;;11.06;71.87
75166;BME280;63747;48.042;10.088;2023-11-19T14:40:04;95029.50;;;10.97;72.25
75166;BME280;63747;48.042;10.088;2023-11-19T14:43:05;95015.63;;;10.95;72.26
75166;BME280;63747;48.042;10.088;2023-11-19T14:46:06;95004.66;;;10.98;72.34
75166;BME280;63747;48.042;10.088;2023-11-19T14:49:07;95000.44;;;10.89;72.79
75166;BME280;63747;48.042;10.088;2023-11-19T14:52:08;95004.91;;;10.88;72.73
75166;BME280;63747;48.042;10.088;2023-11-19T14:55:09;95011.22;;;10.87;72.94
75166;BME280;63747;48.042;10.088;2023-11-19T14:58:11;95006.19;;;10.78;73.10
75166;BME280;63747;48.042;10.088;2023-11-19T15:01:14;94996.16;;;10.65;73.15
75166;BME280;63747;48.042;10.088;2023-11-19T15:04:15;94990.75;;;10.58;73.64
75166;BME280;63747;48.042;10.088;2023-11-19T15:07:17;95000.69;;;10.56;73.59
75166;BME280;63747;48.042;10.088;2023-11-19T15:10:17;94995.44;;;10.48;73.61
75166;BME280;63747;48.042;10.088;2023-11-19T15:13:18;94998.16;;;10.40;73.65
75166;BME280;63747;48.042;10.088;2023-11-19T15:16:19;95000.56;;;10.27;74.26
75166;BME280;63747;48.042;10.088;2023-11-19T15:19:25;95000.94;;;10.24;74.32
75166;BME280;63747;48.042;10.088;2023-11-19T15:22:26;95012.19;;;10.26;74.00
75166;BME280;63747;48.042;10.088;2023-11-19T15:25:27;95003.09;;;10.20;74.41
75166;BME280;63747;48.042;10.088;2023-11-19T15:28:27;95019.69;;;10.14;74.46
75166;BME280;63747;48.042;10.088;2023-11-19T15:31:28;95033.13;;;10.13;74.43
75166;BME280;63747;48.042;10.088;2023-11-19T15:34:29;95040.44;;;10.02;74.88
75166;BME280;63747;48.042;10.088;2023-11-19T15:37:30;95047.56;;;10.02;74.95
75166;BME280;63747;48.042;10.088;2023-11-19T15:40:31;95044.97;;;9.94;74.98
75166;BME280;63747;48.042;10.088;2023-11-19T15:43:31;95059.41;;;9.91;74.83
75166;BME280;63747;48.042;10.088;2023-11-19T15:46:32;95051.78;;;9.88;74.92
75166;BME280;63747;48.042;10.088;2023-11-19T15:49:33;95057.13;;;9.80;74.97
75166;BME280;63747;48.042;10.088;2023-11-19T15:52:33;95047.03;;;9.75;75.06
75166;BME280;63747;48.042;10.088;2023-11-19T15:55:34;95058.81;;;9.73;75.14
75166;BME280;63747;48.042;10.088;2023-11-19T15:58:35;95046.06;;;9.68;75.07
75166;BME280;63747;48.042;10.088;2023-11-19T16:01:36;95040.97;;;9.67;74.92
75166;BME280;63747;48.042;10.088;2023-11-19T16:04:37;95048.72;;;9.68;74.76
75166;BME280;63747;48.042;10.088;2023-11-19T16:07:38;95042.47;;;9.61;74.97
75166;BME280;63747;48.042;10.088;2023-11-19T16:10:38;95047.47;;;9.56;74.80
75166;BME280;63747;48.042;10.088;2023-11-19T16:13:43;95052.25;;;9.52;75.19